sensor_id;sensor_type;location;lat;lon;timestamp;P1;durP1;ratioP1;P2;durP2;ratioP2
13799;SDS011;6971;50.028;9.258;2023-08-31T00:04:53;4.03;;;3.20;;
13799;SDS011;6971;50.028;9.258;2023-08-31T00:09:56;4.07;;;3.23;;
13799;SDS011;6971;50.028;9.258;2023-08-31T00:14:56;6.67;;;5.37;;
13799;SDS011;6971;50.028;9.258;2023-08-31T00:19:57;9.10;;;6.20;;
13799;SDS011;6971;50.028;9.258;2023-08-31T00:24:57;6.63;;;5.60;;
13799;SDS011;6971;50.028;9.258;2023-08-31T00:29:57;7.53;;;5.43;;
13799;SDS011;6971;50.028;9.258;2023-08-31T00:34:58;7.00;;;5.27;;
13799;SDS011;6971;50.028;9.258;2023-08-31T00:39:58;6.73;;;6.03;;
13799;SDS011;6971;50.028;9.258;2023-08-31T00:44:59;6.83;;;5.20;;
13799;SDS011;6971;50.028;9.258;2023-08-31T00:49:59;7.10;;;5.33;;
13799;SDS011;6971;50.028;9.258;2023-08-31T00:55:00;6.37;;;5.13;;
13799;SDS011;6971;50.028;9.258;2023-08-31T01:00:05;6.20;;;5.27;;
13799;SDS011;6971;50.028;9.258;2023-08-31T01:05:25;7.57;;;5.43;;
13799;SDS011;6971;50.028;9.258;2023-08-31T01:15:29;7.45;;;5.35;;
13799;SDS011;6971;50.028;9.258;2023-08-31T01:20:37;7.53;;;5.30;;
13799;SDS011;6971;50.028;9.258;2023-08-31T01:25:42;6.23;;;5.33;;
13799;SDS011;6971;50.028;9.258;2023-08-31T01:30:43;5.77;;;4.50;;
13799;SDS011;6971;50.028;9.258;2023-08-31T01:35:45;6.73;;;4.93;;
13799;SDS011;6971;50.028;9.258;2023-08-31T01:40:51;6.73;;;4.63;;
13799;SDS011;6971;50.028;9.258;2023-08-31T01:46:00;5.10;;;4.00;;
13799;SDS011;6971;50.028;9.258;2023-08-31T01:51:01;4.10;;;3.63;;
13799;SDS011;6971;50.028;9.258;2023-08-31T01:56:02;6.47;;;4.53;;
13799;SDS011;6971;50.028;9.258;2023-08-31T02:01:02;5.17;;;4.03;;
13799;SDS011;6971;50.028;9.258;2023-08-31T02:06:02;5.67;;;4.23;;
13799;SDS011;6971;50.028;9.258;2023-08-31T02:11:04;6.23;;;4.60;;
13799;SDS011;6971;50.028;9.258;2023-08-31T02:16:04;5.97;;;4.60;;
13799;SDS011;6971;50.028;9.258;2023-08-31T02:21:04;5.13;;;4.50;;
13799;SDS011;6971;50.028;9.258;2023-08-31T02:26:07;6.13;;;4.93;;
13799;SDS011;6971;50.028;9.258;2023-08-31T02:31:09;5.50;;;4.23;;
13799;SDS011;6971;50.028;9.258;2023-08-31T02:36:11;6.27;;;4.90;;
13799;SDS011;6971;50.028;9.258;2023-08-31T02:41:11;5.53;;;4.93;;
13799;SDS011;6971;50.028;9.258;2023-08-31T02:46:12;6.83;;;5.17;;
13799;SDS011;6971;50.028;9.258;2023-08-31T02:51:12;5.60;;;4.57;;
13799;SDS011;6971;50.028;9.258;2023-08-31T02:56:13;5.33;;;4.53;;
13799;SDS011;6971;50.028;9.258;2023-08-31T03:01:13;6.13;;;5.13;;
13799;SDS011;6971;50.028;9.258;2023-08-31T03:06:14;5.77;;;4.63;;
13799;SDS011;6971;50.028;9.258;2023-08-31T03:11:15;6.73;;;5.27;;
13799;SDS011;6971;50.028;9.258;2023-08-31T03:16:16;6.13;;;4.60;;
13799;SDS011;6971;50.028;9.258;2023-08-31T03:21:16;6.83;;;4.23;;
13799;SDS011;6971;50.028;9.258;2023-08-31T03:26:16;5.40;;;4.60;;
13799;SDS011;6971;50.028;9.258;2023-08-31T03:31:17;6.60;;;5.03;;
13799;SDS011;6971;50.028;9.258;2023-08-31T03:36:17;5.47;;;4.57;;
13799;SDS011;6971;50.028;9.258;2023-08-31T03:41:17;9.13;;;4.87;;
13799;SDS011;6971;50.028;9.258;2023-08-31T03:46:18;6.07;;;4.50;;
13799;SDS011;6971;50.028;9.258;2023-08-31T03:51:18;6.07;;;4.70;;
13799;SDS011;6971;50.028;9.258;2023-08-31T03:56:18;5.63;;;4.27;;
13799;SDS011;6971;50.028;9.258;2023-08-31T04:01:19;7.43;;;5.00;;
13799;SDS011;6971;50.028;9.258;2023-08-31T04:06:19;7.93;;;5.30;;
13799;SDS011;6971;50.028;9.258;2023-08-31T04:11:20;5.60;;;5.07;;
13799;SDS011;6971;50.028;9.258;2023-08-31T04:16:20;10.17;;;5.13;;
13799;SDS011;6971;50.028;9.258;2023-08-31T04:21:21;6.50;;;5.17;;
13799;SDS011;6971;50.028;9.258;2023-08-31T04:26:21;8.97;;;5.20;;
13799;SDS011;6971;50.028;9.258;2023-08-31T04:31:23;6.63;;;5.43;;
13799;SDS011;6971;50.028;9.258;2023-08-31T04:36:24;7.50;;;5.50;;
13799;SDS011;6971;50.028;9.258;2023-08-31T04:41:25;6.87;;;5.63;;
13799;SDS011;6971;50.028;9.258;2023-08-31T04:46:26;9.83;;;6.87;;
13799;SDS011;6971;50.028;9.258;2023-08-31T04:51:30;11.00;;;6.47;;
13799;SDS011;6971;50.028;9.258;2023-08-31T04:56:39;6.93;;;5.50;;
13799;SDS011;6971;50.028;9.258;2023-08-31T05:01:39;9.57;;;6.03;;
13799;SDS011;6971;50.028;9.258;2023-08-31T05:06:40;13.13;;;7.53;;
13799;SDS011;6971;50.028;9.258;2023-08-31T05:11:40;10.23;;;7.43;;
13799;SDS011;6971;50.028;9.258;2023-08-31T05:16:40;10.83;;;7.40;;
13799;SDS011;6971;50.028;9.258;2023-08-31T05:21:41;10.73;;;7.37;;
13799;SDS011;6971;50.028;9.258;2023-08-31T05:26:41;11.50;;;7.97;;
13799;SDS011;6971;50.028;9.258;2023-08-31T05:31:41;10.90;;;7.67;;
13799;SDS011;6971;50.028;9.258;2023-08-31T05:36:42;10.57;;;8.73;;
13799;SDS011;6971;50.028;9.258;2023-08-31T05:41:43;12.17;;;9.63;;
13799;SDS011;6971;50.028;9.258;2023-08-31T05:46:43;12.63;;;9.30;;
13799;SDS011;6971;50.028;9.258;2023-08-31T05:51:43;19.50;;;8.97;;
13799;SDS011;6971;50.028;9.258;2023-08-31T05:56:44;13.40;;;8.73;;
13799;SDS011;6971;50.028;9.258;2023-08-31T06:01:44;11.40;;;8.17;;
13799;SDS011;6971;50.028;9.258;2023-08-31T06:06:45;11.00;;;8.10;;
13799;SDS011;6971;50.028;9.258;2023-08-31T06:11:46;10.33;;;8.47;;
13799;SDS011;6971;50.028;9.258;2023-08-31T06:16:46;11.67;;;8.43;;
13799;SDS011;6971;50.028;9.258;2023-08-31T06:21:46;10.97;;;8.20;;
13799;SDS011;6971;50.028;9.258;2023-08-31T06:26:48;12.63;;;9.07;;
13799;SDS011;6971;50.028;9.258;2023-08-31T06:31:48;13.63;;;9.00;;
13799;SDS011;6971;50.028;9.258;2023-08-31T06:36:49;13.43;;;10.13;;
13799;SDS011;6971;50.028;9.258;2023-08-31T06:41:49;15.50;;;9.37;;
13799;SDS011;6971;50.028;9.258;2023-08-31T06:46:49;10.67;;;8.17;;
13799;SDS011;6971;50.028;9.258;2023-08-31T06:51:50;10.80;;;7.90;;
13799;SDS011;6971;50.028;9.258;2023-08-31T06:56:50;11.47;;;6.90;;
13799;SDS011;6971;50.028;9.258;2023-08-31T07:01:50;9.70;;;6.70;;
13799;SDS011;6971;50.028;9.258;2023-08-31T07:06:51;7.50;;;6.07;;
13799;SDS011;6971;50.028;9.258;2023-08-31T07:11:52;6.87;;;5.83;;
13799;SDS011;6971;50.028;9.258;2023-08-31T07:16:52;8.57;;;5.20;;
13799;SDS011;6971;50.028;9.258;2023-08-31T07:21:52;6.40;;;4.73;;
13799;SDS011;6971;50.028;9.258;2023-08-31T07:26:54;5.40;;;4.90;;
13799;SDS011;6971;50.028;9.258;2023-08-31T07:31:55;5.47;;;2.97;;
13799;SDS011;6971;50.028;9.258;2023-08-31T07:36:55;4.97;;;2.97;;
13799;SDS011;6971;50.028;9.258;2023-08-31T07:41:57;5.77;;;3.27;;
13799;SDS011;6971;50.028;9.258;2023-08-31T07:46:59;5.37;;;2.67;;
13799;SDS011;6971;50.028;9.258;2023-08-31T07:52:02;6.03;;;3.23;;
13799;SDS011;6971;50.028;9.258;2023-08-31T07:57:03;3.50;;;2.63;;
13799;SDS011;6971;50.028;9.258;2023-08-31T08:02:03;4.43;;;2.27;;
13799;SDS011;6971;50.028;9.258;2023-08-31T08:07:04;3.67;;;2.70;;
13799;SDS011;6971;50.028;9.258;2023-08-31T08:12:04;3.57;;;2.43;;
13799;SDS011;6971;50.028;9.258;2023-08-31T08:17:05;3.53;;;2.30;;
13799;SDS011;6971;50.028;9.258;2023-08-31T08:22:05;4.17;;;2.70;;
13799;SDS011;6971;50.028;9.258;2023-08-31T08:27:05;5.07;;;3.63;;
13799;SDS011;6971;50.028;9.258;2023-08-31T08:32:06;2.43;;;2.23;;
13799;SDS011;6971;50.028;9.258;2023-08-31T08:37:08;2.80;;;2.37;;
13799;SDS011;6971;50.028;9.258;2023-08-31T08:42:09;3.57;;;2.33;;
13799;SDS011;6971;50.028;9.258;2023-08-31T08:47:11;3.10;;;2.60;;
13799;SDS011;6971;50.028;9.258;2023-08-31T08:52:12;2.37;;;2.13;;
13799;SDS011;6971;50.028;9.258;2023-08-31T08:57:13;3.17;;;2.30;;
13799;SDS011;6971;50.028;9.258;2023-08-31T09:02:14;3.43;;;2.17;;
13799;SDS011;6971;50.028;9.258;2023-08-31T09:07:14;4.50;;;2.30;;
13799;SDS011;6971;50.028;9.258;2023-08-31T09:12:15;5.53;;;2.27;;
13799;SDS011;6971;50.028;9.258;2023-08-31T09:17:16;3.90;;;2.90;;
13799;SDS011;6971;50.028;9.258;2023-08-31T09:22:16;3.20;;;1.80;;
13799;SDS011;6971;50.028;9.258;2023-08-31T09:27:22;2.90;;;1.80;;
13799;SDS011;6971;50.028;9.258;2023-08-31T09:32:24;3.97;;;2.13;;
13799;SDS011;6971;50.028;9.258;2023-08-31T09:37:25;1.63;;;1.53;;
13799;SDS011;6971;50.028;9.258;2023-08-31T09:42:36;2.23;;;1.77;;
13799;SDS011;6971;50.028;9.258;2023-08-31T09:47:38;2.47;;;1.87;;
13799;SDS011;6971;50.028;9.258;2023-08-31T09:52:38;2.63;;;1.70;;
13799;SDS011;6971;50.028;9.258;2023-08-31T09:57:39;2.73;;;2.20;;
13799;SDS011;6971;50.028;9.258;2023-08-31T10:02:40;3.60;;;1.63;;
13799;SDS011;6971;50.028;9.258;2023-08-31T10:07:40;2.17;;;1.77;;
13799;SDS011;6971;50.028;9.258;2023-08-31T10:12:44;2.40;;;1.60;;
13799;SDS011;6971;50.028;9.258;2023-08-31T10:17:46;2.00;;;1.33;;
13799;SDS011;6971;50.028;9.258;2023-08-31T10:22:47;2.73;;;1.63;;
13799;SDS011;6971;50.028;9.258;2023-08-31T10:27:47;2.50;;;1.43;;
13799;SDS011;6971;50.028;9.258;2023-08-31T10:38:15;1.53;;;1.37;;
13799;SDS011;6971;50.028;9.258;2023-08-31T10:43:25;4.07;;;1.70;;
13799;SDS011;6971;50.028;9.258;2023-08-31T10:48:27;2.23;;;1.73;;
13799;SDS011;6971;50.028;9.258;2023-08-31T10:53:28;1.70;;;1.60;;
13799;SDS011;6971;50.028;9.258;2023-08-31T10:58:31;2.13;;;1.60;;
13799;SDS011;6971;50.028;9.258;2023-08-31T11:03:32;3.37;;;1.87;;
13799;SDS011;6971;50.028;9.258;2023-08-31T11:08:58;2.90;;;1.57;;
13799;SDS011;6971;50.028;9.258;2023-08-31T11:13:59;3.37;;;1.60;;
13799;SDS011;6971;50.028;9.258;2023-08-31T11:18:59;2.10;;;1.57;;
13799;SDS011;6971;50.028;9.258;2023-08-31T11:24:00;2.77;;;1.40;;
13799;SDS011;6971;50.028;9.258;2023-08-31T11:29:00;2.43;;;1.40;;
13799;SDS011;6971;50.028;9.258;2023-08-31T11:34:00;1.60;;;1.30;;
13799;SDS011;6971;50.028;9.258;2023-08-31T11:39:01;2.80;;;1.50;;
13799;SDS011;6971;50.028;9.258;2023-08-31T11:44:03;2.77;;;1.53;;
13799;SDS011;6971;50.028;9.258;2023-08-31T11:49:05;1.90;;;1.20;;
13799;SDS011;6971;50.028;9.258;2023-08-31T11:54:06;2.27;;;1.70;;
13799;SDS011;6971;50.028;9.258;2023-08-31T11:59:08;3.57;;;1.60;;
13799;SDS011;6971;50.028;9.258;2023-08-31T12:04:13;3.43;;;1.57;;
13799;SDS011;6971;50.028;9.258;2023-08-31T12:09:14;2.77;;;1.27;;
13799;SDS011;6971;50.028;9.258;2023-08-31T12:14:18;1.70;;;1.10;;
13799;SDS011;6971;50.028;9.258;2023-08-31T12:19:20;1.63;;;1.30;;
13799;SDS011;6971;50.028;9.258;2023-08-31T12:24:26;1.17;;;0.90;;
13799;SDS011;6971;50.028;9.258;2023-08-31T12:29:26;1.80;;;1.23;;
13799;SDS011;6971;50.028;9.258;2023-08-31T12:34:27;2.10;;;1.40;;
13799;SDS011;6971;50.028;9.258;2023-08-31T12:39:27;2.77;;;1.40;;
13799;SDS011;6971;50.028;9.258;2023-08-31T12:44:27;2.53;;;1.37;;
13799;SDS011;6971;50.028;9.258;2023-08-31T12:49:28;2.37;;;1.47;;
13799;SDS011;6971;50.028;9.258;2023-08-31T12:54:28;2.33;;;1.47;;
13799;SDS011;6971;50.028;9.258;2023-08-31T12:59:29;1.40;;;1.30;;
13799;SDS011;6971;50.028;9.258;2023-08-31T13:04:29;1.33;;;1.23;;
13799;SDS011;6971;50.028;9.258;2023-08-31T13:09:29;3.83;;;1.67;;
13799;SDS011;6971;50.028;9.258;2023-08-31T13:14:30;1.77;;;1.30;;
13799;SDS011;6971;50.028;9.258;2023-08-31T13:19:30;1.93;;;1.10;;
13799;SDS011;6971;50.028;9.258;2023-08-31T13:24:30;1.70;;;1.10;;
13799;SDS011;6971;50.028;9.258;2023-08-31T13:29:31;2.37;;;1.50;;
13799;SDS011;6971;50.028;9.258;2023-08-31T13:34:32;1.20;;;1.00;;
13799;SDS011;6971;50.028;9.258;2023-08-31T13:39:33;1.50;;;1.10;;
13799;SDS011;6971;50.028;9.258;2023-08-31T13:44:35;1.57;;;1.20;;
13799;SDS011;6971;50.028;9.258;2023-08-31T13:49:36;1.67;;;1.43;;
13799;SDS011;6971;50.028;9.258;2023-08-31T13:54:36;1.80;;;1.23;;
13799;SDS011;6971;50.028;9.258;2023-08-31T13:59:36;2.27;;;1.47;;
13799;SDS011;6971;50.028;9.258;2023-08-31T14:04:37;2.20;;;1.60;;
13799;SDS011;6971;50.028;9.258;2023-08-31T14:09:37;3.90;;;1.63;;
13799;SDS011;6971;50.028;9.258;2023-08-31T14:14:38;1.23;;;1.10;;
13799;SDS011;6971;50.028;9.258;2023-08-31T14:19:39;1.57;;;1.47;;
13799;SDS011;6971;50.028;9.258;2023-08-31T14:24:39;2.20;;;1.40;;
13799;SDS011;6971;50.028;9.258;2023-08-31T14:29:40;2.20;;;1.47;;
13799;SDS011;6971;50.028;9.258;2023-08-31T14:34:40;1.43;;;1.20;;
13799;SDS011;6971;50.028;9.258;2023-08-31T14:39:41;3.50;;;1.63;;
13799;SDS011;6971;50.028;9.258;2023-08-31T14:44:41;1.70;;;1.13;;
13799;SDS011;6971;50.028;9.258;2023-08-31T14:49:41;2.70;;;1.43;;
13799;SDS011;6971;50.028;9.258;2023-08-31T14:54:42;2.77;;;1.23;;
13799;SDS011;6971;50.028;9.258;2023-08-31T14:59:42;3.73;;;1.87;;
13799;SDS011;6971;50.028;9.258;2023-08-31T15:04:43;2.23;;;1.33;;
13799;SDS011;6971;50.028;9.258;2023-08-31T15:09:43;2.57;;;1.30;;
13799;SDS011;6971;50.028;9.258;2023-08-31T15:14:44;2.30;;;1.30;;
13799;SDS011;6971;50.028;9.258;2023-08-31T15:19:45;2.97;;;1.50;;
13799;SDS011;6971;50.028;9.258;2023-08-31T15:24:45;2.30;;;1.60;;
13799;SDS011;6971;50.028;9.258;2023-08-31T15:29:46;4.10;;;2.07;;
13799;SDS011;6971;50.028;9.258;2023-08-31T15:34:46;3.27;;;1.90;;
13799;SDS011;6971;50.028;9.258;2023-08-31T15:39:47;2.27;;;1.53;;
13799;SDS011;6971;50.028;9.258;2023-08-31T15:44:47;3.23;;;1.73;;
13799;SDS011;6971;50.028;9.258;2023-08-31T15:49:48;3.33;;;1.57;;
13799;SDS011;6971;50.028;9.258;2023-08-31T15:54:50;2.20;;;1.70;;
13799;SDS011;6971;50.028;9.258;2023-08-31T15:59:50;3.20;;;1.70;;
13799;SDS011;6971;50.028;9.258;2023-08-31T16:04:52;4.37;;;1.63;;
13799;SDS011;6971;50.028;9.258;2023-08-31T16:09:53;2.30;;;1.63;;
13799;SDS011;6971;50.028;9.258;2023-08-31T16:14:53;3.00;;;1.60;;
13799;SDS011;6971;50.028;9.258;2023-08-31T16:19:54;2.20;;;1.67;;
13799;SDS011;6971;50.028;9.258;2023-08-31T16:24:55;2.80;;;1.60;;
13799;SDS011;6971;50.028;9.258;2023-08-31T16:29:56;2.17;;;1.90;;
13799;SDS011;6971;50.028;9.258;2023-08-31T16:34:56;2.13;;;1.37;;
13799;SDS011;6971;50.028;9.258;2023-08-31T16:39:56;2.60;;;1.83;;
13799;SDS011;6971;50.028;9.258;2023-08-31T16:44:57;4.13;;;2.13;;
13799;SDS011;6971;50.028;9.258;2023-08-31T16:49:58;3.17;;;2.43;;
13799;SDS011;6971;50.028;9.258;2023-08-31T16:54:59;3.17;;;2.10;;
13799;SDS011;6971;50.028;9.258;2023-08-31T16:59:59;2.90;;;2.10;;
13799;SDS011;6971;50.028;9.258;2023-08-31T17:04:59;3.07;;;1.93;;
13799;SDS011;6971;50.028;9.258;2023-08-31T17:10:00;2.00;;;1.70;;
13799;SDS011;6971;50.028;9.258;2023-08-31T17:15:01;2.77;;;1.70;;
13799;SDS011;6971;50.028;9.258;2023-08-31T17:20:04;3.27;;;2.10;;
13799;SDS011;6971;50.028;9.258;2023-08-31T17:25:06;5.63;;;2.03;;
13799;SDS011;6971;50.028;9.258;2023-08-31T17:30:06;4.67;;;2.13;;
13799;SDS011;6971;50.028;9.258;2023-08-31T17:35:07;2.10;;;1.77;;
13799;SDS011;6971;50.028;9.258;2023-08-31T17:40:09;4.07;;;1.80;;
13799;SDS011;6971;50.028;9.258;2023-08-31T17:45:09;3.30;;;2.43;;
13799;SDS011;6971;50.028;9.258;2023-08-31T17:50:10;3.83;;;2.13;;
13799;SDS011;6971;50.028;9.258;2023-08-31T17:55:10;2.87;;;2.10;;
13799;SDS011;6971;50.028;9.258;2023-08-31T18:00:11;3.80;;;2.50;;
13799;SDS011;6971;50.028;9.258;2023-08-31T18:05:13;4.07;;;1.93;;
13799;SDS011;6971;50.028;9.258;2023-08-31T18:10:15;2.83;;;2.07;;
13799;SDS011;6971;50.028;9.258;2023-08-31T18:15:16;4.60;;;2.40;;
13799;SDS011;6971;50.028;9.258;2023-08-31T18:20:16;3.30;;;3.00;;
13799;SDS011;6971;50.028;9.258;2023-08-31T18:25:17;3.33;;;2.47;;
13799;SDS011;6971;50.028;9.258;2023-08-31T18:30:17;6.60;;;3.17;;
13799;SDS011;6971;50.028;9.258;2023-08-31T18:35:18;2.97;;;2.27;;
13799;SDS011;6971;50.028;9.258;2023-08-31T18:40:18;2.77;;;2.10;;
13799;SDS011;6971;50.028;9.258;2023-08-31T18:45:20;3.53;;;2.50;;
13799;SDS011;6971;50.028;9.258;2023-08-31T18:50:20;3.50;;;1.90;;
13799;SDS011;6971;50.028;9.258;2023-08-31T18:55:20;2.73;;;2.20;;
13799;SDS011;6971;50.028;9.258;2023-08-31T19:00:22;3.33;;;2.93;;
13799;SDS011;6971;50.028;9.258;2023-08-31T19:05:23;3.30;;;2.57;;
13799;SDS011;6971;50.028;9.258;2023-08-31T19:10:23;5.47;;;2.60;;
13799;SDS011;6971;50.028;9.258;2023-08-31T19:15:23;5.57;;;2.37;;
13799;SDS011;6971;50.028;9.258;2023-08-31T19:20:24;7.37;;;2.40;;
13799;SDS011;6971;50.028;9.258;2023-08-31T19:25:24;2.80;;;2.17;;
13799;SDS011;6971;50.028;9.258;2023-08-31T19:30:29;2.90;;;2.40;;
13799;SDS011;6971;50.028;9.258;2023-08-31T19:35:30;3.30;;;2.13;;
13799;SDS011;6971;50.028;9.258;2023-08-31T19:40:30;6.07;;;2.27;;
13799;SDS011;6971;50.028;9.258;2023-08-31T19:45:31;6.00;;;2.47;;
13799;SDS011;6971;50.028;9.258;2023-08-31T19:50:32;7.77;;;5.07;;
13799;SDS011;6971;50.028;9.258;2023-08-31T19:55:32;6.40;;;4.60;;
13799;SDS011;6971;50.028;9.258;2023-08-31T20:00:34;3.70;;;3.33;;
13799;SDS011;6971;50.028;9.258;2023-08-31T20:05:34;4.23;;;3.03;;
13799;SDS011;6971;50.028;9.258;2023-08-31T20:10:35;5.20;;;3.73;;
13799;SDS011;6971;50.028;9.258;2023-08-31T20:15:35;4.33;;;2.67;;
13799;SDS011;6971;50.028;9.258;2023-08-31T20:20:35;5.83;;;2.73;;
13799;SDS011;6971;50.028;9.258;2023-08-31T20:25:36;3.80;;;2.70;;
13799;SDS011;6971;50.028;9.258;2023-08-31T20:30:36;5.87;;;2.83;;
13799;SDS011;6971;50.028;9.258;2023-08-31T20:35:37;4.50;;;2.40;;
13799;SDS011;6971;50.028;9.258;2023-08-31T20:40:38;6.37;;;4.80;;
13799;SDS011;6971;50.028;9.258;2023-08-31T20:45:41;3.97;;;2.60;;
13799;SDS011;6971;50.028;9.258;2023-08-31T20:50:42;3.80;;;2.70;;
13799;SDS011;6971;50.028;9.258;2023-08-31T20:55:42;3.40;;;2.90;;
13799;SDS011;6971;50.028;9.258;2023-08-31T21:00:42;4.87;;;3.47;;
13799;SDS011;6971;50.028;9.258;2023-08-31T21:05:43;4.60;;;3.20;;
13799;SDS011;6971;50.028;9.258;2023-08-31T21:10:43;3.27;;;2.97;;
13799;SDS011;6971;50.028;9.258;2023-08-31T21:15:44;3.07;;;2.77;;
13799;SDS011;6971;50.028;9.258;2023-08-31T21:20:45;2.73;;;2.50;;
13799;SDS011;6971;50.028;9.258;2023-08-31T21:25:45;4.33;;;2.80;;
13799;SDS011;6971;50.028;9.258;2023-08-31T21:30:46;6.17;;;3.00;;
13799;SDS011;6971;50.028;9.258;2023-08-31T21:35:46;3.87;;;3.00;;
13799;SDS011;6971;50.028;9.258;2023-08-31T21:40:46;3.53;;;3.13;;
13799;SDS011;6971;50.028;9.258;2023-08-31T21:45:47;2.77;;;2.40;;
13799;SDS011;6971;50.028;9.258;2023-08-31T21:50:47;3.60;;;2.53;;
13799;SDS011;6971;50.028;9.258;2023-08-31T21:55:48;4.17;;;2.90;;
13799;SDS011;6971;50.028;9.258;2023-08-31T22:00:48;4.13;;;2.80;;
13799;SDS011;6971;50.028;9.258;2023-08-31T22:05:48;4.43;;;2.83;;
13799;SDS011;6971;50.028;9.258;2023-08-31T22:10:49;2.73;;;2.53;;
13799;SDS011;6971;50.028;9.258;2023-08-31T22:15:50;2.63;;;2.30;;
13799;SDS011;6971;50.028;9.258;2023-08-31T22:20:52;5.63;;;3.00;;
13799;SDS011;6971;50.028;9.258;2023-08-31T22:25:53;3.90;;;2.87;;
13799;SDS011;6971;50.028;9.258;2023-08-31T22:30:53;4.57;;;3.37;;
13799;SDS011;6971;50.028;9.258;2023-08-31T22:35:54;4.47;;;3.70;;
13799;SDS011;6971;50.028;9.258;2023-08-31T22:40:54;6.73;;;3.70;;
13799;SDS011;6971;50.028;9.258;2023-08-31T22:45:55;3.53;;;3.03;;
13799;SDS011;6971;50.028;9.258;2023-08-31T22:50:58;4.00;;;2.93;;
13799;SDS011;6971;50.028;9.258;2023-08-31T22:56:06;3.40;;;2.97;;
13799;SDS011;6971;50.028;9.258;2023-08-31T23:01:06;4.57;;;2.87;;
13799;SDS011;6971;50.028;9.258;2023-08-31T23:06:07;4.27;;;3.20;;
13799;SDS011;6971;50.028;9.258;2023-08-31T23:11:08;4.60;;;3.27;;
13799;SDS011;6971;50.028;9.258;2023-08-31T23:16:09;3.77;;;2.80;;
13799;SDS011;6971;50.028;9.258;2023-08-31T23:21:11;4.03;;;3.17;;
13799;SDS011;6971;50.028;9.258;2023-08-31T23:26:13;3.33;;;2.93;;
13799;SDS011;6971;50.028;9.258;2023-08-31T23:31:13;5.63;;;3.23;;
13799;SDS011;6971;50.028;9.258;2023-08-31T23:36:15;4.50;;;3.37;;
13799;SDS011;6971;50.028;9.258;2023-08-31T23:41:16;6.37;;;2.77;;
13799;SDS011;6971;50.028;9.258;2023-08-31T23:46:16;3.20;;;2.90;;
13799;SDS011;6971;50.028;9.258;2023-08-31T23:51:16;5.07;;;2.97;;
13799;SDS011;6971;50.028;9.258;2023-08-31T23:56:17;3.47;;;3.00;;
